^^
Station Historical Data
 
Daily Summary for October 19, 2018 Units:  English    Metric   Both
« Previous Day
Next Day »
Daily Weekly Monthly Yearly Custom
  Current: High: Low: Average:
Temperature: 54.9 °F 54.9 °F 44.1 °F 48.5 °F
Dew Point: 35 °F 41.2 °F 34 °F 37 °F
Humidity: 47% 77% 47% 65%
Wind Speed: 16mph 33mph 2mph 10.8mph
Wind Gust: 33mph 36mph - -
WindWNW - - WNW
Pressure: 30.17 in 30.17 in 29.87 in -
Precipitation: 0 in      
Historical Graphs
 
 
Tabular Data for October 19, 2018
Time Temperature Dew Point Pressure Wind Wind Speed Wind Gust Humidity Rainfall Rate (Hourly) solar Conditions
00:04 51.8 °F 41.2 °F 29.88 in SW 4 mph 5 mph 67% 0 in 0.00 W/m2
00:09 51.6 °F 41 °F 29.87 in SW 4 mph 5 mph 67% 0 in 0.00 W/m2
00:14 51.5 °F 40.9 °F 29.87 in SW 4 mph 5 mph 67% 0 in 0.00 W/m2
00:19 51.4 °F 40.8 °F 29.88 in SW 4 mph 6 mph 67% 0 in 0.00 W/m2
00:24 51.2 °F 40.6 °F 29.87 in WSW 3 mph 6 mph 67% 0 in 0.00 W/m2
00:29 50.9 °F 40.3 °F 29.88 in WSW 2 mph 5 mph 67% 0 in 0.00 W/m2
00:34 50.6 °F 40.4 °F 29.88 in WSW 3 mph 4 mph 68% 0 in 0.00 W/m2
00:39 50.2 °F 40 °F 29.88 in West 3 mph 4 mph 68% 0 in 0.00 W/m2
00:44 49.6 °F 40.2 °F 29.88 in West 4 mph 4 mph 70% 0 in 0.00 W/m2
00:49 49.1 °F 40.1 °F 29.88 in West 3 mph 4 mph 71% 0 in 0.00 W/m2
00:54 48.6 °F 40 °F 29.88 in West 3 mph 4 mph 72% 0 in 0.00 W/m2
00:59 48.3 °F 40 °F 29.88 in West 3 mph 5 mph 73% 0 in 0.00 W/m2
01:04 48.1 °F 39.9 °F 29.88 in West 4 mph 6 mph 73% 0 in 0.00 W/m2
01:09 47.9 °F 39.7 °F 29.88 in West 2 mph 6 mph 73% 0 in 0.00 W/m2
01:14 47.7 °F 39.8 °F 29.89 in West 3 mph 5 mph 74% 0 in 0.00 W/m2
01:19 47.6 °F 39.7 °F 29.89 in West 4 mph 5 mph 74% 0 in 0.00 W/m2
01:24 47.5 °F 39.6 °F 29.89 in West 5 mph 5 mph 74% 0 in 0.00 W/m2
01:29 47.3 °F 39.4 °F 29.89 in West 5 mph 5 mph 74% 0 in 0.00 W/m2
01:34 47 °F 39.5 °F 29.89 in West 4 mph 6 mph 75% 0 in 0.00 W/m2
01:39 46.8 °F 39.3 °F 29.89 in West 4 mph 6 mph 75% 0 in 0.00 W/m2
01:44 46.6 °F 39.4 °F 29.89 in West 4 mph 6 mph 76% 0 in 0.00 W/m2
01:49 46.4 °F 39.2 °F 29.89 in West 5 mph 6 mph 76% 0 in 0.00 W/m2
01:54 45.8 °F 39 °F 29.89 in West 5 mph 6 mph 77% 0 in 0.00 W/m2
01:59 45.8 °F 38.7 °F 29.90 in West 5 mph 7 mph 76% 0 in 0.00 W/m2
02:04 46 °F 38.5 °F 29.90 in West 6 mph 8 mph 75% 0 in 0.00 W/m2
02:09 45.8 °F 38.3 °F 29.90 in West 7 mph 8 mph 75% 0 in 0.00 W/m2
02:14 45.5 °F 38 °F 29.90 in WNW 5 mph 9 mph 75% 0 in 0.00 W/m2
02:19 45.1 °F 37.6 °F 29.90 in West 6 mph 9 mph 75% 0 in 0.00 W/m2
02:24 44.7 °F 37.6 °F 29.90 in WNW 5 mph 8 mph 76% 0 in 0.00 W/m2
02:29 44.3 °F 37.2 °F 29.90 in WNW 6 mph 7 mph 76% 0 in 0.00 W/m2
02:34 44.1 °F 37.3 °F 29.91 in WNW 5 mph 7 mph 77% 0 in 0.00 W/m2
02:39 44.5 °F 37.7 °F 29.91 in NW 5 mph 7 mph 77% 0 in 0.00 W/m2
02:44 45 °F 37.9 °F 29.91 in NW 6 mph 9 mph 76% 0 in 0.00 W/m2
02:49 45.5 °F 38 °F 29.91 in NW 6 mph 9 mph 75% 0 in 0.00 W/m2
02:54 45.7 °F 37.9 °F 29.91 in NW 6 mph 7 mph 74% 0 in 0.00 W/m2
02:59 46.4 °F 38.2 °F 29.91 in NW 8 mph 15 mph 73% 0 in 0.00 W/m2
03:04 48.1 °F 38.4 °F 29.91 in NW 7 mph 15 mph 69% 0 in 0.00 W/m2
03:09 48.4 °F 38.3 °F 29.91 in NW 9 mph 12 mph 68% 0 in 0.00 W/m2
03:14 48.9 °F 38 °F 29.92 in NW 9 mph 13 mph 66% 0 in 0.00 W/m2
03:19 48.8 °F 37.9 °F 29.92 in NW 7 mph 13 mph 66% 0 in 0.00 W/m2
03:24 48.3 °F 37.8 °F 29.92 in WNW 8 mph 10 mph 67% 0 in 0.00 W/m2
03:29 48.5 °F 37.7 °F 29.92 in NW 7 mph 11 mph 66% 0 in 0.00 W/m2
03:34 48.4 °F 37.6 °F 29.93 in NW 6 mph 11 mph 66% 0 in 0.00 W/m2
03:39 47.5 °F 37.1 °F 29.93 in NW 5 mph 9 mph 67% 0 in 0.00 W/m2
03:44 46.5 °F 36.9 °F 29.92 in NW 7 mph 9 mph 69% 0 in 0.00 W/m2
03:49 46.5 °F 36.9 °F 29.92 in NW 5 mph 10 mph 69% 0 in 0.00 W/m2
03:54 46.6 °F 36.6 °F 29.92 in NW 7 mph 11 mph 68% 0 in 0.00 W/m2
03:59 46.9 °F 36.5 °F 29.93 in NW 5 mph 11 mph 67% 0 in 0.00 W/m2
04:04 46.7 °F 36.3 °F 29.93 in NW 5 mph 9 mph 67% 0 in 0.00 W/m2
04:09 46.4 °F 36.4 °F 29.93 in WNW 4 mph 8 mph 68% 0 in 0.00 W/m2
04:14 45.8 °F 35.8 °F 29.94 in NW 5 mph 8 mph 68% 0 in 0.00 W/m2
04:19 45.4 °F 36.2 °F 29.94 in WNW 3 mph 7 mph 70% 0 in 0.00 W/m2
04:24 45.2 °F 36 °F 29.94 in WNW 4 mph 7 mph 70% 0 in 0.00 W/m2
04:29 44.7 °F 35.5 °F 29.95 in WNW 4 mph 6 mph 70% 0 in 0.00 W/m2
04:34 44.5 °F 35.7 °F 29.95 in NW 6 mph 7 mph 71% 0 in 0.00 W/m2
04:39 44.7 °F 35.9 °F 29.95 in WNW 4 mph 7 mph 71% 0 in 0.00 W/m2
04:44 44.8 °F 36 °F 29.95 in WNW 5 mph 7 mph 71% 0 in 0.00 W/m2
04:49 44.9 °F 35.7 °F 29.95 in WNW 5 mph 7 mph 70% 0 in 0.00 W/m2
04:54 45.1 °F 35.9 °F 29.96 in WNW 4 mph 7 mph 70% 0 in 0.00 W/m2
04:59 45 °F 35.8 °F 29.96 in West 7 mph 8 mph 70% 0 in 0.00 W/m2
05:04 45.3 °F 36.1 °F 29.96 in West 6 mph 8 mph 70% 0 in 0.00 W/m2
05:09 45.2 °F 36 °F 29.96 in West 8 mph 8 mph 70% 0 in 0.00 W/m2
05:14 45 °F 36.2 °F 29.97 in West 4 mph 8 mph 71% 0 in 0.00 W/m2
05:19 45.1 °F 36.3 °F 29.97 in West 5 mph 11 mph 71% 0 in 0.00 W/m2
05:24 45.8 °F 36.6 °F 29.96 in WNW 5 mph 11 mph 70% 0 in 0.00 W/m2
05:29 46.2 °F 36.6 °F 29.97 in West 7 mph 9 mph 69% 0 in 0.00 W/m2
05:34 46.2 °F 36.6 °F 29.98 in West 6 mph 9 mph 69% 0 in 0.00 W/m2
05:39 45.9 °F 36.7 °F 29.98 in West 6 mph 9 mph 70% 0 in 0.00 W/m2
05:44 46 °F 36.8 °F 29.98 in WNW 11 mph 11 mph 70% 0 in 0.00 W/m2
05:49 47.3 °F 37.3 °F 29.98 in NW 7 mph 14 mph 68% 0 in 0.00 W/m2
05:54 48.4 °F 37.6 °F 29.99 in WNW 8 mph 17 mph 66% 0 in 0.00 W/m2
05:59 48.4 °F 37.2 °F 29.99 in WNW 9 mph 17 mph 65% 0 in 0.00 W/m2
06:04 48.4 °F 37.2 °F 29.99 in WNW 5 mph 15 mph 65% 0 in 0.00 W/m2
06:09 48.5 °F 37.3 °F 29.99 in WNW 13 mph 15 mph 65% 0 in 0.00 W/m2
06:14 48.6 °F 37 °F 29.99 in NW 8 mph 18 mph 64% 0 in 0.00 W/m2
06:19 48.7 °F 37.1 °F 29.99 in NW 7 mph 18 mph 64% 0 in 0.00 W/m2
06:24 48.6 °F 37 °F 29.99 in WNW 12 mph 15 mph 64% 0 in 0.00 W/m2
06:29 48.4 °F 37.2 °F 30.00 in WNW 11 mph 17 mph 65% 0 in 0.00 W/m2
06:34 48.5 °F 36.9 °F 30.00 in NW 13 mph 17 mph 64% 0 in 0.00 W/m2
06:39 48.8 °F 37.2 °F 30.00 in NW 10 mph 16 mph 64% 0 in 0.00 W/m2
06:44 48.6 °F 37 °F 30.00 in WNW 9 mph 17 mph 64% 0 in 0.00 W/m2
06:49 48.4 °F 37.2 °F 30.00 in NW 11 mph 17 mph 65% 0 in 0.00 W/m2
06:54 48.3 °F 37.1 °F 30.01 in NW 13 mph 15 mph 65% 0 in 0.00 W/m2
06:59 48.4 °F 36.8 °F 30.01 in NW 7 mph 19 mph 64% 0 in 0.00 W/m2
07:04 48.8 °F 36.8 °F 30.01 in NW 12 mph 19 mph 63% 0 in 0.00 W/m2
07:09 49 °F 36.5 °F 30.02 in WNW 14 mph 18 mph 62% 0 in 0.00 W/m2
07:14 48.8 °F 36.4 °F 30.02 in NW 15 mph 18 mph 62% 0 in 0.00 W/m2
07:19 48.6 °F 36.6 °F 30.02 in NW 11 mph 18 mph 63% 0 in 0.00 W/m2
07:24 48.8 °F 36.4 °F 30.03 in NW 10 mph 18 mph 62% 0 in 0.00 W/m2
07:29 48.6 °F 36.2 °F 30.04 in WNW 16 mph 18 mph 62% 0 in 0.00 W/m2
07:34 48.8 °F 36.4 °F 30.04 in NW 17 mph 22 mph 62% 0 in 0.00 W/m2
07:39 48.6 °F 36.2 °F 30.04 in WNW 15 mph 23 mph 62% 0 in 0.00 W/m2
07:44 48.7 °F 36.3 °F 30.04 in NW 17 mph 23 mph 62% 0 in 0.00 W/m2
07:49 48.6 °F 36.6 °F 30.05 in WNW 19 mph 26 mph 63% 0 in 0.00 W/m2
07:54 48.8 °F 36.4 °F 30.05 in NW 20 mph 26 mph 62% 0 in 0.00 W/m2
07:59 48.8 °F 36.4 °F 30.05 in WNW 18 mph 27 mph 62% 0 in 0.00 W/m2
08:04 48.8 °F 36.8 °F 30.05 in NW 17 mph 27 mph 63% 0 in 0.00 W/m2
08:09 49.1 °F 36.6 °F 30.05 in NNW 19 mph 27 mph 62% 0 in 5.00 W/m2
08:14 48.8 °F 36.4 °F 30.06 in WNW 20 mph 27 mph 62% 0 in 7.00 W/m2
08:19 48 °F 36 °F 30.06 in NW 11 mph 23 mph 63% 0 in 12.00 W/m2
08:24 47.1 °F 35.9 °F 30.07 in WNW 12 mph 20 mph 65% 0 in 18.00 W/m2
08:29 46.5 °F 36.1 °F 30.07 in NW 10 mph 17 mph 67% 0 in 23.00 W/m2
08:34 46.5 °F 36.1 °F 30.07 in WNW 11 mph 15 mph 67% 0 in 23.00 W/m2
08:39 46.4 °F 36 °F 30.08 in WNW 10 mph 15 mph 67% 0 in 26.00 W/m2
08:44 46 °F 36 °F 30.08 in WNW 10 mph 15 mph 68% 0 in 33.00 W/m2
08:49 45.8 °F 36.2 °F 30.08 in WNW 10 mph 14 mph 69% 0 in 40.00 W/m2
08:54 45.9 °F 36.3 °F 30.09 in WNW 10 mph 14 mph 69% 0 in 49.00 W/m2
08:59 46.1 °F 36.1 °F 30.09 in WNW 8 mph 13 mph 68% 0 in 70.00 W/m2
09:04 46.2 °F 36.2 °F 30.09 in WNW 9 mph 16 mph 68% 0 in 62.00 W/m2
09:09 46.3 °F 36.3 °F 30.10 in WNW 6 mph 16 mph 68% 0 in 60.00 W/m2
09:14 46.3 °F 36.3 °F 30.10 in NW 12 mph 15 mph 68% 0 in 67.00 W/m2
09:19 46.3 °F 36.3 °F 30.11 in West 10 mph 17 mph 68% 0 in 74.00 W/m2
09:24 46.7 °F 36.3 °F 30.11 in NW 18 mph 21 mph 67% 0 in 72.00 W/m2
09:29 46.8 °F 36.4 °F 30.11 in WNW 16 mph 22 mph 67% 0 in 81.00 W/m2
09:34 47 °F 36.2 °F 30.11 in NW 10 mph 24 mph 66% 0 in 86.00 W/m2
09:39 47.1 °F 36.3 °F 30.11 in WNW 17 mph 24 mph 66% 0 in 127.00 W/m2
09:44 47.5 °F 36.7 °F 30.12 in WNW 12 mph 22 mph 66% 0 in 128.00 W/m2
09:49 47.8 °F 36.6 °F 30.12 in NW 12 mph 21 mph 65% 0 in 155.00 W/m2
09:54 48.2 °F 36.6 °F 30.12 in NW 14 mph 24 mph 64% 0 in 142.00 W/m2
09:59 48.6 °F 37 °F 30.12 in WNW 16 mph 24 mph 64% 0 in 185.00 W/m2
10:04 48.9 °F 36.4 °F 30.12 in WNW 24 mph 24 mph 62% 0 in 230.00 W/m2
10:09 49.1 °F 36.6 °F 30.12 in NW 14 mph 26 mph 62% 0 in 225.00 W/m2
10:14 49.4 °F 36.9 °F 30.12 in WNW 13 mph 28 mph 62% 0 in 248.00 W/m2
10:19 49.9 °F 37 °F 30.13 in NW 12 mph 28 mph 61% 0 in 262.00 W/m2
10:24 50.1 °F 36.3 °F 30.13 in WNW 22 mph 28 mph 59% 0 in 220.00 W/m2
10:29 50.2 °F 36.4 °F 30.14 in NW 15 mph 28 mph 59% 0 in 278.00 W/m2
10:34 50.6 °F 36.4 °F 30.14 in WNW 19 mph 28 mph 58% 0 in 367.00 W/m2
10:39 50.9 °F 36.2 °F 30.14 in WNW 19 mph 27 mph 57% 0 in 288.00 W/m2
10:44 51.3 °F 36.1 °F 30.14 in NW 12 mph 27 mph 56% 0 in 262.00 W/m2
10:49 51.9 °F 36.2 °F 30.15 in NW 15 mph 25 mph 55% 0 in 380.00 W/m2
10:54 52.2 °F 35.6 °F 30.14 in NW 23 mph 30 mph 53% 0 in 399.00 W/m2
10:59 51.8 °F 35.7 °F 30.15 in NW 18 mph 30 mph 54% 0 in 322.00 W/m2
11:04 51.9 °F 35.8 °F 30.15 in NW 26 mph 30 mph 54% 0 in 320.00 W/m2
11:09 51.8 °F 35.2 °F 30.15 in WNW 24 mph 30 mph 53% 0 in 306.00 W/m2
11:14 52.2 °F 36 °F 30.16 in WNW 11 mph 29 mph 54% 0 in 396.00 W/m2
11:19 52.2 °F 35.1 °F 30.16 in NW 20 mph 28 mph 52% 0 in 371.00 W/m2
11:24 52.2 °F 35.1 °F 30.16 in NW 19 mph 28 mph 52% 0 in 325.00 W/m2
11:29 52.3 °F 35.2 °F 30.16 in NW 21 mph 28 mph 52% 0 in 404.00 W/m2
11:34 52.3 °F 35.2 °F 30.16 in WNW 20 mph 29 mph 52% 0 in 304.00 W/m2
11:39 52.6 °F 35.5 °F 30.16 in WNW 20 mph 31 mph 52% 0 in 348.00 W/m2
11:44 53.1 °F 35.4 °F 30.16 in WNW 16 mph 31 mph 51% 0 in 399.00 W/m2
11:49 53.2 °F 36 °F 30.16 in NW 23 mph 28 mph 52% 0 in 399.00 W/m2
11:54 53.4 °F 35.7 °F 30.17 in NW 10 mph 29 mph 51% 0 in 431.00 W/m2
11:59 53.6 °F 35.4 °F 30.17 in NW 23 mph 30 mph 50% 0 in 410.00 W/m2
12:04 53.8 °F 34 °F 30.17 in WNW 27 mph 34 mph 47% 0 in 501.00 W/m2
12:09 54.1 °F 34.8 °F 30.17 in NNW 20 mph 34 mph 48% 0 in 415.00 W/m2
12:14 54.3 °F 35 °F 30.17 in WNW 33 mph 33 mph 48% 0 in 364.00 W/m2
12:19 53.8 °F 34.6 °F 30.17 in WNW 16 mph 33 mph 48% 0 in 497.00 W/m2
12:24 54.4 °F 35.1 °F 30.17 in NW 32 mph 35 mph 48% 0 in 605.00 W/m2
12:29 54.2 °F 34.4 °F 30.17 in NW 25 mph 35 mph 47% 0 in 497.00 W/m2
12:34 54.2 °F 34.9 °F 30.17 in WNW 17 mph 34 mph 48% 0 in 404.00 W/m2
12:39 54.3 °F 34.5 °F 30.17 in NW 19 mph 33 mph 47% 0 in 501.00 W/m2
12:44 54.3 °F 35 °F 30.17 in WNW 20 mph 36 mph 48% 0 in 464.00 W/m2
12:49 54.5 °F 35.2 °F 30.17 in NW 33 mph 36 mph 48% 0 in 506.00 W/m2
12:54 54.9 °F 35 °F 30.17 in WNW 16 mph 33 mph 47% 0 in 510.00 W/m2
Bismarck, North Dakota, USA
Compliments of Weather Underground - 4 mb